Time;durP1;ratioP1;P1;durP2;ratioP2;P2;SDS_P1;SDS_P2;PMS_P1;PMS_P2;Temp;Humidity;BMP_temperature;BMP_pressure;BME280_temperature;BME280_humidity;BME280_pressure;Samples;Min_cycle;Max_cycle;Signal;HPM_P1;HPM_P2
2022/04/01 00:02:23;;;;;;;7.82;3.80;;;3.10;99.90;;;;;;5086246;28;20818;-72
2022/04/01 00:04:50;;;;;;;6.87;3.80;;;3.10;99.90;;;;;;5084883;28;20413;-72
2022/04/01 00:07:16;;;;;;;4.80;3.47;;;3.10;99.90;;;;;;5066352;28;20410;-70
2022/04/01 00:09:41;;;;;;;6.90;3.90;;;3.10;99.90;;;;;;5084951;28;20766;-69
2022/04/01 00:12:08;;;;;;;6.07;3.83;;;3.10;99.90;;;;;;5068695;28;20414;-69
2022/04/01 00:14:34;;;;;;;6.53;4.20;;;3.00;99.90;;;;;;5086423;28;20417;-71
2022/04/01 00:17:00;;;;;;;5.43;4.50;;;3.00;99.90;;;;;;5088029;28;20484;-69
2022/04/01 00:19:27;;;;;;;6.22;5.00;;;3.00;99.90;;;;;;5065480;28;20534;-69
2022/04/01 00:21:54;;;;;;;8.00;5.13;;;3.00;99.90;;;;;;5085961;28;20417;-69
2022/04/01 00:24:21;;;;;;;6.78;5.43;;;3.00;99.90;;;;;;5065502;28;20786;-69
2022/04/01 00:26:46;;;;;;;7.50;4.93;;;3.00;99.90;;;;;;5070366;28;20878;-69
2022/04/01 00:29:16;;;;;;;6.78;4.68;;;3.00;99.90;;;;;;5092788;28;20476;-69
2022/04/01 00:31:48;;;;;;;8.55;4.78;;;3.00;99.90;;;;;;5071192;28;20409;-69
2022/04/01 00:34:15;;;;;;;6.85;4.53;;;3.00;99.90;;;;;;5055507;28;20809;-69
2022/04/01 00:36:49;;;;;;;6.72;4.65;;;3.00;99.90;;;;;;5092999;28;20527;-69
2022/04/01 00:39:17;;;;;;;7.93;4.30;;;3.00;99.90;;;;;;5073039;28;20401;-69
2022/04/01 00:41:44;;;;;;;6.10;4.10;;;3.00;99.90;;;;;;5094635;28;20424;-70
2022/04/01 00:44:28;;;;;;;5.93;4.20;;;3.00;99.90;;;;;;5070417;28;20797;-69
2022/04/01 00:47:02;;;;;;;7.93;4.20;;;3.00;99.90;;;;;;5091410;28;20432;-71
2022/04/01 00:49:29;;;;;;;5.85;4.60;;;3.00;99.90;;;;;;5073845;28;20401;-71
2022/04/01 00:51:57;;;;;;;5.25;4.15;;;3.00;99.90;;;;;;5092388;28;20429;-73
2022/04/01 00:54:23;;;;;;;8.00;3.60;;;3.00;99.90;;;;;;5086629;28;20447;-72
2022/04/01 00:56:49;;;;;;;6.60;3.13;;;3.00;99.90;;;;;;5074099;28;20905;-72
2022/04/01 00:59:15;;;;;;;4.57;3.15;;;3.00;99.90;;;;;;5090282;28;20465;-71
2022/04/01 01:01:44;;;;;;;7.55;3.20;;;2.90;99.90;;;;;;5073683;28;20410;-72
2022/04/01 01:04:15;;;;;;;4.60;3.05;;;2.90;99.90;;;;;;5091433;28;20425;-72
2022/04/01 01:06:43;;;;;;;6.18;3.40;;;2.80;99.90;;;;;;5073481;28;20409;-70
2022/04/01 01:09:10;;;;;;;6.18;3.45;;;2.80;99.90;;;;;;5088679;28;20401;-70
2022/04/01 01:11:37;;;;;;;6.57;3.10;;;2.80;99.90;;;;;;5074349;28;20429;-70
2022/04/01 01:14:08;;;;;;;9.00;3.30;;;2.80;99.90;;;;;;5072279;28;20828;-69
2022/04/01 01:16:35;;;;;;;9.05;3.67;;;2.80;99.90;;;;;;5073940;28;20409;-70
2022/04/01 01:19:13;;;;;;;8.38;3.40;;;2.80;99.90;;;;;;5073781;28;20471;-70
2022/04/01 01:21:40;;;;;;;5.40;3.67;;;2.80;99.90;;;;;;5074031;28;20484;-70
2022/04/01 01:24:15;;;;;;;9.38;4.10;;;2.80;99.90;;;;;;5066267;28;20436;-69
2022/04/01 01:26:51;;;;;;;7.50;4.10;;;2.80;99.90;;;;;;5045170;28;20498;-70
2022/04/01 01:29:30;;;;;;;6.40;3.60;;;2.80;99.90;;;;;;5062123;28;20492;-70
2022/04/01 01:31:58;;;;;;;8.18;3.90;;;2.80;99.90;;;;;;5060003;28;20460;-70
2022/04/01 01:34:25;;;;;;;5.90;3.65;;;2.80;99.90;;;;;;5055818;28;20472;-70
2022/04/01 01:36:52;;;;;;;6.15;3.92;;;2.80;99.90;;;;;;5052271;28;20874;-69
2022/04/01 01:39:19;;;;;;;6.57;4.32;;;2.80;99.90;;;;;;5052433;28;20908;-70
2022/04/01 01:41:45;;;;;;;8.82;4.10;;;2.80;99.90;;;;;;5049307;28;20507;-71
2022/04/01 01:44:13;;;;;;;5.97;4.13;;;2.80;99.90;;;;;;5060208;28;20404;-70
2022/04/01 01:46:40;;;;;;;8.55;4.60;;;2.80;99.90;;;;;;5052303;28;20416;-71
2022/04/01 01:49:07;;;;;;;6.60;4.45;;;2.80;99.90;;;;;;5046706;28;20405;-71
2022/04/01 01:57:02;;;;;;;7.32;4.53;;;2.80;99.90;;;;;;5049107;28;20398;-71
2022/04/01 01:59:28;;;;;;;7.82;4.88;;;2.80;99.90;;;;;;5049763;28;20493;-71
2022/04/01 02:01:54;;;;;;;8.20;4.87;;;2.80;99.90;;;;;;5061043;28;20409;-71
2022/04/01 02:04:22;;;;;;;6.75;5.30;;;2.80;99.90;;;;;;5056021;28;21294;-71
2022/04/01 02:06:51;;;;;;;9.15;6.07;;;2.80;99.90;;;;;;5030552;28;20462;-71
2022/04/01 02:09:17;;;;;;;6.87;5.53;;;2.80;99.90;;;;;;5046959;28;20409;-71
2022/04/01 02:11:44;;;;;;;8.48;5.75;;;2.80;99.90;;;;;;5047063;28;20761;-72
2022/04/01 02:14:11;;;;;;;12.10;5.87;;;2.80;99.90;;;;;;5044159;28;20409;-71
2022/04/01 02:16:38;;;;;;;7.80;5.20;;;2.80;99.90;;;;;;5048178;28;20443;-72
2022/04/01 02:19:05;;;;;;;7.85;4.82;;;2.90;99.90;;;;;;5038617;28;20401;-73
2022/04/01 02:21:31;;;;;;;5.55;3.95;;;2.90;99.90;;;;;;5051030;28;20399;-75
2022/04/01 02:23:57;;;;;;;6.05;4.13;;;2.90;99.90;;;;;;5057589;28;20412;-72
2022/04/01 02:26:23;;;;;;;6.65;4.20;;;2.90;99.90;;;;;;5069070;28;20421;-72
2022/04/01 02:28:49;;;;;;;5.75;3.95;;;2.90;99.90;;;;;;5054804;28;20402;-73
2022/04/01 02:31:17;;;;;;;7.93;3.90;;;2.90;99.90;;;;;;5053292;28;20508;-72
2022/04/01 02:34:09;;;;;;;5.53;3.60;;;2.90;99.90;;;;;;5070560;28;20414;-72
2022/04/01 02:36:35;;;;;;;5.85;3.92;;;2.90;99.90;;;;;;5068629;28;20512;-72
2022/04/01 02:39:01;;;;;;;4.83;3.53;;;2.90;99.90;;;;;;5071392;28;20413;-74
2022/04/01 02:41:29;;;;;;;6.55;3.90;;;2.90;99.90;;;;;;5069502;28;20398;-75
2022/04/01 02:44:08;;;;;;;6.60;3.80;;;2.90;99.90;;;;;;5053624;28;20394;-73
2022/04/01 02:46:44;;;;;;;6.03;4.10;;;2.90;99.90;;;;;;5070772;28;20398;-71
2022/04/01 02:49:15;;;;;;;8.02;4.03;;;2.90;99.90;;;;;;5067864;28;20856;-70
2022/04/01 02:52:01;;;;;;;5.65;4.15;;;2.80;99.90;;;;;;5071309;28;20398;-71
2022/04/01 02:54:27;;;;;;;6.82;4.55;;;2.80;99.90;;;;;;5053147;28;20794;-72
2022/04/01 02:56:55;;;;;;;7.25;4.40;;;2.80;99.90;;;;;;5071130;28;20394;-73
2022/04/01 02:59:21;;;;;;;7.07;4.57;;;2.80;99.90;;;;;;5051441;28;20555;-73
2022/04/01 03:01:47;;;;;;;6.78;4.13;;;2.80;99.90;;;;;;5065848;28;20410;-71
2022/04/01 03:04:13;;;;;;;6.70;4.22;;;2.80;99.90;;;;;;5051275;28;20417;-73
2022/04/01 03:06:49;;;;;;;7.88;4.60;;;2.90;99.90;;;;;;5069922;28;20402;-73
2022/04/01 03:09:15;;;;;;;6.78;4.20;;;2.90;99.90;;;;;;5068718;28;20414;-72
2022/04/01 03:11:48;;;;;;;8.93;4.10;;;2.90;99.90;;;;;;5054058;28;20417;-73
2022/04/01 03:14:34;;;;;;;6.10;4.40;;;2.90;99.90;;;;;;5083880;28;20475;-72
2022/04/01 03:17:31;;;;;;;6.30;4.07;;;2.90;99.90;;;;;;5083903;28;20505;-72
2022/04/01 03:19:59;;;;;;;9.13;4.13;;;2.90;99.90;;;;;;5069683;28;20409;-75
2022/04/01 03:22:25;;;;;;;6.65;4.40;;;2.90;99.90;;;;;;5067121;28;20476;-72
2022/04/01 03:24:52;;;;;;;6.78;3.88;;;2.90;99.90;;;;;;5087742;28;20542;-74
2022/04/01 03:27:18;;;;;;;6.47;4.10;;;2.90;99.90;;;;;;5067786;28;20422;-71
2022/04/01 03:29:43;;;;;;;6.00;3.60;;;2.90;99.90;;;;;;5056766;28;20402;-73
2022/04/01 03:32:11;;;;;;;6.18;3.45;;;2.90;99.90;;;;;;5051724;28;20763;-75
2022/04/01 03:34:38;;;;;;;5.35;3.47;;;2.90;99.90;;;;;;5051510;28;20975;-73
2022/04/01 03:37:05;;;;;;;5.95;3.70;;;2.90;99.90;;;;;;5069691;28;20450;-72
2022/04/01 03:39:32;;;;;;;5.80;3.50;;;2.90;99.90;;;;;;5066580;28;20443;-72
2022/04/01 03:42:06;;;;;;;4.85;2.97;;;2.90;99.90;;;;;;5069478;28;20436;-73
2022/04/01 03:44:36;;;;;;;5.15;2.90;;;2.90;99.90;;;;;;5068080;28;20544;-73
2022/04/01 03:47:44;;;;;;;5.30;2.65;;;2.90;99.90;;;;;;5052633;28;20783;-74
2022/04/01 03:50:12;;;;;;;4.68;2.70;;;2.90;99.90;;;;;;5083793;28;20748;-73
2022/04/01 03:52:39;;;;;;;5.03;2.65;;;2.90;99.90;;;;;;5049335;28;20492;-73
2022/04/01 03:55:07;;;;;;;7.90;2.80;;;3.00;99.90;;;;;;5067944;28;20763;-73
2022/04/01 03:57:55;;;;;;;6.55;2.78;;;2.90;99.90;;;;;;5086009;28;20516;-73
2022/04/01 04:00:43;;;;;;;5.90;2.60;;;3.00;99.90;;;;;;5087146;28;20473;-75
2022/04/01 04:03:10;;;;;;;3.83;2.50;;;3.00;99.90;;;;;;5065796;28;20936;-73
2022/04/01 04:05:37;;;;;;;4.82;2.47;;;3.00;99.90;;;;;;5069593;28;20483;-73
2022/04/01 04:08:04;;;;;;;4.63;2.28;;;3.00;99.90;;;;;;5066289;28;20770;-71
2022/04/01 04:10:34;;;;;;;4.35;2.63;;;3.00;99.90;;;;;;5069050;28;20896;-72
2022/04/01 04:13:19;;;;;;;4.80;2.80;;;3.00;99.90;;;;;;5053722;28;20417;-73
2022/04/01 04:15:58;;;;;;;5.80;2.47;;;3.00;99.90;;;;;;5087468;28;20468;-72
2022/04/01 04:18:32;;;;;;;6.47;2.55;;;3.00;99.90;;;;;;5047115;28;20502;-72
2022/04/01 04:21:16;;;;;;;5.28;2.58;;;3.00;99.90;;;;;;5052208;28;20402;-72
2022/04/01 04:23:54;;;;;;;5.20;2.72;;;3.10;99.90;;;;;;5060846;28;20540;-72
2022/04/01 04:26:37;;;;;;;5.88;2.58;;;3.10;99.90;;;;;;5081271;28;20774;-74
2022/04/01 04:29:10;;;;;;;5.50;2.33;;;3.10;99.90;;;;;;5067214;28;20402;-73
2022/04/01 04:31:58;;;;;;;5.97;2.88;;;3.00;99.90;;;;;;5054967;28;20732;-73
2022/04/01 04:34:28;;;;;;;5.90;2.85;;;3.00;99.90;;;;;;5052242;28;20496;-74
2022/04/01 04:36:57;;;;;;;6.35;2.78;;;3.10;99.90;;;;;;5067882;28;20413;-75
2022/04/01 04:39:30;;;;;;;6.03;2.72;;;3.10;99.90;;;;;;5065765;28;20418;-74
2022/04/01 04:41:57;;;;;;;6.53;2.65;;;3.10;99.90;;;;;;5066088;28;20497;-75
2022/04/01 04:44:27;;;;;;;6.60;2.75;;;3.10;99.90;;;;;;5064426;28;20446;-74
2022/04/01 04:46:55;;;;;;;5.22;2.50;;;3.00;99.90;;;;;;5067321;28;20402;-73
2022/04/01 04:49:29;;;;;;;4.95;2.70;;;3.10;99.90;;;;;;5066251;28;20413;-72
2022/04/01 04:51:57;;;;;;;4.45;2.65;;;3.10;99.90;;;;;;5066020;28;20456;-73
2022/04/01 04:54:40;;;;;;;4.60;2.80;;;3.10;99.90;;;;;;5063375;28;20918;-73
2022/04/01 04:57:38;;;;;;;4.85;2.60;;;3.10;99.90;;;;;;5071747;28;20410;-72
2022/04/01 05:00:05;;;;;;;4.75;2.50;;;3.10;99.90;;;;;;5082363;28;20406;-71
2022/04/01 05:03:19;;;;;;;7.25;2.97;;;3.10;99.90;;;;;;5060599;28;20402;-72
2022/04/01 05:05:56;;;;;;;3.95;2.60;;;3.10;99.90;;;;;;5067650;28;20420;-73
2022/04/01 05:08:46;;;;;;;7.18;3.00;;;3.10;99.90;;;;;;5074861;28;21029;-74
2022/04/01 05:11:44;;;;;;;5.15;2.80;;;3.10;99.90;;;;;;5063799;28;20489;-69
2022/04/01 05:14:16;;;;;;;4.13;2.70;;;3.10;99.90;;;;;;5047119;28;20413;-74
2022/04/01 05:17:03;;;;;;;5.30;2.57;;;3.10;99.90;;;;;;5067288;28;20450;-73
2022/04/01 05:19:31;;;;;;;5.65;3.00;;;3.10;99.90;;;;;;5069523;28;20419;-75
2022/04/01 05:22:07;;;;;;;6.00;2.50;;;3.10;99.90;;;;;;5071989;28;20412;-71
2022/04/01 05:24:50;;;;;;;3.75;2.28;;;3.10;99.90;;;;;;5057081;28;20815;-72
2022/04/01 05:27:30;;;;;;;3.95;2.20;;;3.10;99.90;;;;;;5071408;28;20390;-72
2022/04/01 05:30:04;;;;;;;7.65;2.60;;;3.10;99.70;;;;;;5071835;28;20944;-70
2022/04/01 05:32:38;;;;;;;5.38;2.63;;;3.10;99.70;;;;;;5062841;28;20476;-72
2022/04/01 05:35:04;;;;;;;8.27;2.20;;;3.10;99.60;;;;;;5068624;28;20397;-73
2022/04/01 05:37:32;;;;;;;6.30;2.30;;;3.10;99.40;;;;;;5068188;28;20487;-73
2022/04/01 05:40:05;;;;;;;4.47;2.17;;;3.10;99.30;;;;;;5067663;28;21179;-73
2022/04/01 05:42:32;;;;;;;3.92;2.00;;;3.20;99.30;;;;;;5070483;28;20901;-72
2022/04/01 05:45:18;;;;;;;4.43;2.10;;;3.20;99.40;;;;;;5071197;28;20413;-73
2022/04/01 05:47:44;;;;;;;6.40;2.30;;;3.20;99.20;;;;;;5068419;28;20527;-72
2022/04/01 05:50:10;;;;;;;5.72;2.40;;;3.20;99.10;;;;;;5068908;28;20508;-73
2022/04/01 05:52:37;;;;;;;4.72;1.90;;;3.20;99.00;;;;;;5052902;28;20420;-75
2022/04/01 05:55:04;;;;;;;5.47;2.20;;;3.20;99.00;;;;;;5068663;28;20410;-73
2022/04/01 05:57:31;;;;;;;4.15;2.00;;;3.30;99.00;;;;;;5067635;28;20902;-73
2022/04/01 05:59:57;;;;;;;5.67;2.00;;;3.30;98.90;;;;;;5089522;28;20394;-71
2022/04/01 06:02:25;;;;;;;6.90;1.90;;;3.30;98.90;;;;;;5068584;28;20405;-74
2022/04/01 06:05:19;;;;;;;5.40;2.00;;;3.30;98.80;;;;;;5088789;28;20417;-73
2022/04/01 06:07:55;;;;;;;5.65;1.95;;;3.30;98.90;;;;;;5051798;28;20432;-74
2022/04/01 06:10:58;;;;;;;7.90;2.42;;;3.30;98.80;;;;;;5062007;28;20796;-69
2022/04/01 06:14:12;;;;;;;5.07;2.20;;;3.40;98.70;;;;;;5058653;28;20426;-71
2022/04/01 06:17:14;;;;;;;2.60;1.80;;;3.40;98.60;;;;;;5087417;28;20409;-72
2022/04/01 06:19:47;;;;;;;7.63;2.05;;;3.40;98.50;;;;;;5067945;28;20520;-72
2022/04/01 06:22:18;;;;;;;5.10;2.10;;;3.40;98.60;;;;;;5069321;28;21343;-73
2022/04/01 06:25:13;;;;;;;6.35;2.28;;;3.40;98.40;;;;;;5053263;28;20841;-72
2022/04/01 06:27:49;;;;;;;4.80;1.88;;;3.40;98.40;;;;;;5053881;28;20520;-71
2022/04/01 06:30:17;;;;;;;8.15;2.28;;;3.40;98.40;;;;;;5086661;28;20440;-72
2022/04/01 06:32:56;;;;;;;7.03;2.10;;;3.50;98.30;;;;;;5065409;28;20443;-72
2022/04/01 06:35:54;;;;;;;3.50;1.83;;;3.50;98.10;;;;;;5069957;28;20495;-72
2022/04/01 06:38:45;;;;;;;6.97;2.08;;;3.50;98.10;;;;;;5085429;28;20952;-74
2022/04/01 06:41:19;;;;;;;7.00;2.63;;;3.50;98.00;;;;;;5087747;28;20413;-75
2022/04/01 06:44:06;;;;;;;6.60;2.35;;;3.60;97.80;;;;;;5066924;28;20755;-72
2022/04/01 06:46:51;;;;;;;4.65;2.05;;;3.60;97.80;;;;;;5088642;28;20418;-72
2022/04/01 06:49:21;;;;;;;8.60;2.28;;;3.60;97.90;;;;;;5067739;28;20453;-74
2022/04/01 06:52:07;;;;;;;6.65;2.17;;;3.70;98.00;;;;;;5085135;28;20417;-74
2022/04/01 06:54:51;;;;;;;5.90;2.10;;;3.70;98.10;;;;;;5086722;28;20520;-72
2022/04/01 06:57:21;;;;;;;6.43;2.40;;;3.70;97.90;;;;;;5084851;28;20420;-71
2022/04/01 07:00:16;;;;;;;5.20;2.08;;;3.70;97.80;;;;;;5060959;28;21031;-73
2022/04/01 07:02:45;;;;;;;5.75;1.90;;;3.80;97.70;;;;;;5084602;28;20485;-74
2022/04/01 07:05:11;;;;;;;4.38;1.92;;;3.90;97.60;;;;;;5068864;28;20417;-74
2022/04/01 07:07:41;;;;;;;4.90;1.90;;;3.90;97.50;;;;;;5068884;28;20759;-73
2022/04/01 07:10:10;;;;;;;4.32;2.08;;;3.90;97.50;;;;;;5065179;28;20454;-72
2022/04/01 07:12:37;;;;;;;4.78;2.00;;;4.00;97.50;;;;;;5067713;28;20410;-74
2022/04/01 07:15:03;;;;;;;5.07;1.88;;;4.00;97.20;;;;;;5081583;28;20394;-71
2022/04/01 07:17:29;;;;;;;6.35;2.00;;;4.00;97.20;;;;;;5085407;28;21024;-71
2022/04/01 07:19:55;;;;;;;5.85;2.08;;;4.00;96.90;;;;;;5083242;28;20461;-74
2022/04/01 07:22:21;;;;;;;4.32;1.60;;;4.10;96.70;;;;;;5086972;28;20774;-71
2022/04/01 07:24:46;;;;;;;4.73;1.70;;;4.10;96.40;;;;;;5082706;28;20410;-72
2022/04/01 07:27:12;;;;;;;3.80;1.80;;;4.10;96.10;;;;;;5086855;28;20543;-72
2022/04/01 07:29:39;;;;;;;5.95;2.10;;;4.10;96.20;;;;;;5050963;28;20488;-71
2022/04/01 07:34:51;;;;;;;5.90;2.00;;;4.30;96.20;;;;;;5066865;28;20398;-72
2022/04/01 07:37:20;;;;;;;4.57;1.75;;;4.40;96.40;;;;;;5087513;28;20284;-71
2022/04/01 07:39:46;;;;;;;2.58;1.60;;;4.20;96.70;;;;;;5087781;28;20650;-72
2022/04/01 07:42:12;;;;;;;4.03;2.15;;;4.00;97.00;;;;;;5086799;28;20233;-71
2022/04/01 07:44:37;;;;;;;5.43;1.90;;;3.90;97.20;;;;;;5066023;28;20202;-72
2022/04/01 07:47:06;;;;;;;3.65;1.65;;;3.90;97.30;;;;;;5088106;28;20180;-72
2022/04/01 07:49:32;;;;;;;4.63;1.80;;;3.90;97.30;;;;;;5082628;28;20187;-73
2022/04/01 07:51:57;;;;;;;4.55;1.67;;;3.90;97.40;;;;;;5070555;28;20200;-71
2022/04/01 07:54:23;;;;;;;4.38;1.35;;;3.90;97.40;;;;;;5085916;28;20213;-72
2022/04/01 07:56:49;;;;;;;6.22;1.40;;;3.90;97.40;;;;;;5083599;28;20692;-72
2022/04/01 07:59:15;;;;;;;3.83;1.25;;;3.90;97.30;;;;;;5086208;28;20264;-72
2022/04/01 08:01:41;;;;;;;6.20;1.60;;;3.90;97.20;;;;;;5088102;28;20269;-71
2022/04/01 08:04:07;;;;;;;4.00;1.33;;;3.90;97.20;;;;;;5066710;28;20329;-73
2022/04/01 08:06:33;;;;;;;11.57;1.80;;;3.90;97.20;;;;;;5068859;28;20621;-74
2022/04/01 08:08:59;;;;;;;3.80;1.60;;;3.90;97.20;;;;;;5085218;28;20669;-72
2022/04/01 08:11:26;;;;;;;3.92;1.40;;;4.00;97.20;;;;;;5088569;28;20235;-72
2022/04/01 08:13:53;;;;;;;4.22;1.27;;;4.00;97.20;;;;;;5084354;28;20197;-70
2022/04/01 08:16:19;;;;;;;3.00;1.52;;;4.00;97.10;;;;;;5068697;28;20189;-72
2022/04/01 08:18:44;;;;;;;3.80;1.50;;;4.00;97.10;;;;;;5082136;28;20323;-70
2022/04/01 08:21:10;;;;;;;6.18;1.80;;;4.00;97.10;;;;;;5067703;28;20226;-71
2022/04/01 08:23:37;;;;;;;3.35;1.60;;;4.10;97.20;;;;;;5069187;28;20194;-71
2022/04/01 08:26:04;;;;;;;4.97;1.45;;;4.10;97.30;;;;;;5088727;28;20289;-71
2022/04/01 08:28:30;;;;;;;4.43;1.52;;;4.20;97.30;;;;;;5087377;28;20182;-71
2022/04/01 08:30:56;;;;;;;3.97;1.60;;;4.20;97.40;;;;;;5085586;28;20211;-71
2022/04/01 08:33:21;;;;;;;2.75;1.30;;;4.40;97.50;;;;;;5070312;28;20623;-71
2022/04/01 08:35:48;;;;;;;3.42;1.30;;;4.50;97.50;;;;;;5068046;28;20189;-70
2022/04/01 08:38:14;;;;;;;6.13;1.83;;;4.70;97.50;;;;;;5069501;28;20238;-70
2022/04/01 08:40:40;;;;;;;4.20;1.00;;;4.90;97.50;;;;;;5086448;28;20178;-70
2022/04/01 08:43:06;;;;;;;1.73;1.20;;;5.10;97.50;;;;;;5086226;28;20189;-70
2022/04/01 08:45:33;;;;;;;;;;;5.30;97.40;;;;;;5087550;28;20115;-70
2022/04/01 08:47:58;;;;;;;4.40;1.50;;;5.50;97.40;;;;;;5088417;28;20176;-69
2022/04/01 08:50:24;;;;;;;4.75;1.70;;;5.70;97.90;;;;;;5090873;28;20184;-69
2022/04/01 08:52:50;;;;;;;2.53;1.08;;;6.00;98.10;;;;;;5072774;28;20182;-72
2022/04/01 08:55:15;;;;;;;1.70;1.20;;;6.20;97.90;;;;;;5090058;28;20315;-69
2022/04/01 08:57:42;;;;;;;3.97;1.40;;;6.60;97.80;;;;;;5072809;28;20482;-69
2022/04/01 09:00:29;;;;;;;2.38;1.23;;;7.50;92.80;;;;;;5091067;28;20496;-71
2022/04/01 09:03:06;;;;;;;4.00;1.40;;;8.40;90.20;;;;;;5057802;28;20505;-71
2022/04/01 09:05:33;;;;;;;2.95;1.30;;;9.30;83.40;;;;;;5067144;28;20409;-68
2022/04/01 09:08:03;;;;;;;3.20;1.80;;;10.00;80.20;;;;;;5090493;28;20429;-70
2022/04/01 09:10:30;;;;;;;4.43;1.50;;;10.60;79.00;;;;;;5072183;28;20410;-72
2022/04/01 09:12:56;;;;;;;4.88;1.60;;;11.40;74.70;;;;;;5088661;28;20445;-72
2022/04/01 09:15:22;;;;;;;3.53;1.65;;;12.00;70.00;;;;;;5088003;28;20406;-71
2022/04/01 09:17:49;;;;;;;4.38;1.50;;;12.70;66.10;;;;;;5085601;28;20414;-72
2022/04/01 09:20:15;;;;;;;3.00;1.30;;;13.30;64.20;;;;;;5070813;28;20489;-73
2022/04/01 09:22:42;;;;;;;5.60;1.90;;;14.20;60.40;;;;;;5089974;28;20215;-72
2022/04/01 09:25:12;;;;;;;1.48;1.30;;;13.90;66.00;;;;;;5084468;28;20643;-72
2022/04/01 09:27:42;;;;;;;2.97;1.50;;;13.80;69.40;;;;;;5070502;28;20182;-73
2022/04/01 09:30:10;;;;;;;4.35;1.75;;;13.90;70.40;;;;;;5066595;28;20182;-71
2022/04/01 09:32:40;;;;;;;4.70;1.45;;;14.00;71.10;;;;;;5086998;28;20269;-70
2022/04/01 09:35:07;;;;;;;;;;;14.20;70.90;;;;;;5089575;28;20062;-71
2022/04/01 09:37:39;;;;;;;;;;;14.40;71.70;;;;;;5089641;28;19916;-72
2022/04/01 09:40:05;;;;;;;;;;;14.50;73.10;;;;;;5087467;28;19957;-71
2022/04/01 09:42:31;;;;;;;;;;;14.50;74.00;;;;;;5073786;28;19916;-70
2022/04/01 09:44:58;;;;;;;;;;;14.40;76.10;;;;;;5072937;28;19916;-71
2022/04/01 09:47:23;;;;;;;;;;;14.40;79.20;;;;;;5073099;28;19911;-71
2022/04/01 09:49:52;;;;;;;;;;;14.30;79.10;;;;;;5088072;28;19965;-70
2022/04/01 09:52:22;;;;;;;;;;;14.40;79.80;;;;;;5072182;28;20271;-69
2022/04/01 09:54:50;;;;;;;4.22;1.92;;;14.70;81.90;;;;;;5088055;28;20406;-69
2022/04/01 09:57:24;;;;;;;2.72;1.38;;;16.70;54.70;;;;;;5069656;28;20418;-70
2022/04/01 09:59:52;;;;;;;2.97;1.60;;;18.00;48.10;;;;;;5087132;28;20836;-70
2022/04/01 10:02:19;;;;;;;5.63;1.70;;;18.60;44.40;;;;;;5069361;28;20508;-69
2022/04/01 10:04:44;;;;;;;5.53;1.50;;;19.10;42.30;;;;;;5069833;28;20414;-70
2022/04/01 10:07:10;;;;;;;3.25;1.50;;;19.60;41.70;;;;;;5069660;28;20471;-70
2022/04/01 10:09:40;;;;;;;4.88;1.60;;;19.90;40.20;;;;;;5086315;28;20417;-70
2022/04/01 10:12:09;;;;;;;3.42;1.50;;;20.00;39.80;;;;;;5070330;28;20412;-70
2022/04/01 10:14:38;;;;;;;4.22;1.45;;;20.00;40.10;;;;;;5070434;28;20420;-70
2022/04/01 10:17:04;;;;;;;3.83;1.60;;;19.90;38.40;;;;;;5085544;28;20407;-70
2022/04/01 10:19:32;;;;;;;3.85;1.48;;;19.90;39.30;;;;;;5067785;28;20982;-70
2022/04/01 10:21:59;;;;;;;3.10;1.50;;;19.80;38.30;;;;;;5072869;28;20228;-72
2022/04/01 10:24:40;;;;;;;3.78;1.50;;;19.00;41.80;;;;;;5068301;28;20222;-71
2022/04/01 10:27:23;;;;;;;5.03;1.40;;;18.30;44.10;;;;;;5067931;28;20274;-69
2022/04/01 10:29:49;;;;;;;;;;;18.10;45.90;;;;;;5064381;28;20086;-70
2022/04/01 10:32:21;;;;;;;;;;;17.90;48.00;;;;;;5070194;28;19908;-70
2022/04/01 10:34:47;;;;;;;;;;;17.80;50.00;;;;;;5068303;28;19904;-70
2022/04/01 10:37:15;;;;;;;;;;;17.80;51.00;;;;;;5070013;28;19912;-68
2022/04/01 10:39:59;;;;;;;;;;;17.90;52.90;;;;;;5067647;28;19919;-69
2022/04/01 10:42:26;;;;;;;;;;;17.90;53.70;;;;;;5070627;28;20326;-70
2022/04/01 10:44:56;;;;;;;;;;;18.00;53.00;;;;;;5069139;28;19916;-71
2022/04/01 10:51:36;;;;;;;3.70;1.20;;;18.10;50.40;;;;;;5067729;28;20162;-69
2022/04/01 10:53:31;;;;;;;5.10;1.60;;;18.40;49.70;;;;;;5069929;28;20277;-72
2022/04/01 10:56:22;;;;;;;2.20;1.25;;;18.50;48.20;;;;;;5064585;28;20181;-72
2022/04/01 10:59:07;;;;;;;3.53;1.35;;;18.40;46.90;;;;;;5064642;28;20194;-71
2022/04/01 11:01:39;;;;;;;4.15;1.30;;;18.30;47.10;;;;;;5067400;28;20600;-71
2022/04/01 11:04:13;;;;;;;1.90;1.20;;;18.30;47.00;;;;;;5064313;28;20207;-71
2022/04/01 11:06:58;;;;;;;4.28;1.38;;;18.20;46.70;;;;;;5067374;28;20217;-74
2022/04/01 11:09:46;;;;;;;4.93;1.30;;;18.20;46.90;;;;;;5064996;28;20225;-72
2022/04/01 11:12:15;;;;;;;4.97;1.50;;;18.10;46.40;;;;;;5068163;28;20201;-72
2022/04/01 11:14:56;;;;;;;3.10;1.30;;;18.10;46.40;;;;;;5051292;28;20279;-71
2022/04/01 11:17:33;;;;;;;2.05;1.10;;;18.30;46.30;;;;;;5066177;28;20689;-71
2022/04/01 11:20:04;;;;;;;2.25;1.40;;;18.40;45.80;;;;;;5065529;28;20235;-70
2022/04/01 11:22:36;;;;;;;2.63;1.05;;;18.50;45.40;;;;;;5068014;28;20565;-73
2022/04/01 11:25:03;;;;;;;4.63;1.80;;;18.50;45.20;;;;;;5053904;28;20235;-72
2022/04/01 11:27:29;;;;;;;2.97;1.50;;;18.60;44.70;;;;;;5031360;28;20313;-74
2022/04/01 11:30:06;;;;;;;4.03;1.40;;;18.70;44.70;;;;;;5047569;28;20707;-74
2022/04/01 11:32:35;;;;;;;2.42;1.30;;;18.90;44.10;;;;;;5042817;28;20215;-76
2022/04/01 11:35:02;;;;;;;1.65;1.00;;;18.90;44.00;;;;;;5045972;28;20199;-73
2022/04/01 11:37:28;;;;;;;2.60;1.20;;;19.00;43.30;;;;;;5049091;28;20252;-74
2022/04/01 11:40:10;;;;;;;2.58;1.33;;;19.00;43.30;;;;;;5045845;28;20571;-78
2022/04/01 11:42:53;;;;;;;2.63;1.10;;;19.00;43.00;;;;;;5047753;28;20223;-74
2022/04/01 11:45:20;;;;;;;4.10;1.33;;;19.00;42.10;;;;;;5046688;28;20890;-75
2022/04/01 11:47:46;;;;;;;3.28;1.35;;;19.70;37.60;;;;;;5048899;28;20850;-72
2022/04/01 11:50:17;;;;;;;3.28;1.27;;;19.20;39.10;;;;;;5045738;28;20203;-76
2022/04/01 11:52:48;;;;;;;2.22;1.40;;;18.90;41.00;;;;;;5047952;28;20191;-76
2022/04/01 11:55:20;;;;;;;2.13;1.58;;;18.70;41.20;;;;;;5029303;28;20207;-76
2022/04/01 11:57:47;;;;;;;3.13;1.60;;;18.50;42.60;;;;;;5047725;28;20710;-72
2022/04/01 12:00:16;;;;;;;3.35;1.40;;;18.50;42.50;;;;;;5045405;28;20187;-71
2022/04/01 12:02:43;;;;;;;1.85;1.35;;;18.30;42.20;;;;;;5039004;28;20283;-73
2022/04/01 12:05:10;;;;;;;3.58;1.50;;;18.00;42.30;;;;;;5045259;28;20278;-69
2022/04/01 12:10:22;;;;;;;5.90;1.73;;;17.00;43.80;;;;;;5045203;28;20189;-70
2022/04/01 12:13:05;;;;;;;4.25;1.52;;;16.70;44.50;;;;;;5045466;28;20435;-70
2022/04/01 12:15:45;;;;;;;3.58;1.60;;;17.30;42.50;;;;;;5045372;28;20936;-73
2022/04/01 12:18:22;;;;;;;3.95;1.20;;;17.90;41.60;;;;;;5046233;28;20204;-71
2022/04/01 12:20:53;;;;;;;4.25;1.70;;;17.60;42.80;;;;;;5046413;28;20194;-70
2022/04/01 12:23:22;;;;;;;6.20;1.60;;;17.40;43.30;;;;;;5045008;28;20196;-72
2022/04/01 12:25:52;;;;;;;3.03;1.58;;;17.20;43.00;;;;;;5078607;28;20686;-71
2022/04/01 12:28:19;;;;;;;4.40;1.20;;;17.10;43.40;;;;;;5085929;28;20186;-70
2022/04/01 12:30:48;;;;;;;2.80;1.55;;;17.10;43.60;;;;;;5066839;28;20186;-71
2022/04/01 12:33:19;;;;;;;3.80;1.60;;;17.00;43.90;;;;;;5086720;28;20269;-70
2022/04/01 12:36:05;;;;;;;5.10;1.60;;;17.10;43.60;;;;;;5084601;28;20648;-70
2022/04/01 12:38:37;;;;;;;4.30;1.35;;;16.90;44.10;;;;;;5086160;28;20215;-71
2022/04/01 12:41:13;;;;;;;3.90;1.90;;;16.60;44.50;;;;;;5088915;28;20293;-71
2022/04/01 12:43:43;;;;;;;4.32;1.60;;;16.70;44.80;;;;;;5086912;28;20200;-72
2022/04/01 12:46:18;;;;;;;3.60;1.38;;;16.70;44.80;;;;;;5069198;28;20185;-72
2022/04/01 12:48:44;;;;;;;4.45;1.48;;;16.50;44.50;;;;;;5084936;28;20409;-72
2022/04/01 12:51:19;;;;;;;3.83;1.60;;;17.00;43.20;;;;;;5087018;28;20875;-71
2022/04/01 12:54:12;;;;;;;3.30;1.38;;;17.40;41.90;;;;;;5082600;28;20424;-67
2022/04/01 12:56:43;;;;;;;4.60;1.40;;;17.80;41.00;;;;;;5077186;28;20406;-71
2022/04/01 12:59:14;;;;;;;2.85;1.40;;;17.90;40.60;;;;;;5064425;28;20489;-71
2022/04/01 13:01:43;;;;;;;4.57;1.60;;;17.70;41.00;;;;;;5084176;28;20471;-70
2022/04/01 13:04:16;;;;;;;5.22;1.60;;;17.40;40.50;;;;;;5080881;28;20471;-69
2022/04/01 13:06:42;;;;;;;;;;;17.00;41.70;;;;;;5088152;28;20059;-70
2022/04/01 13:09:09;;;;;;;;;;;16.20;43.90;;;;;;5066976;28;20349;-67
2022/04/01 13:11:42;;;;;;;;;;;15.70;44.90;;;;;;5087982;28;19915;-70
2022/04/01 13:14:22;;;;;;;5.43;1.58;;;15.30;45.40;;;;;;5066939;28;20595;-72
2022/04/01 13:16:51;;;;;;;3.33;1.60;;;15.00;46.20;;;;;;5067180;28;20428;-67
2022/04/01 13:19:26;;;;;;;6.10;1.70;;;15.50;45.50;;;;;;5084582;28;20413;-70
2022/04/01 13:21:53;;;;;;;;;;;15.50;44.90;;;;;;5069543;28;20024;-69
2022/04/01 13:24:22;;;;;;;;;;;14.90;46.80;;;;;;5084396;28;19920;-68
2022/04/01 13:26:48;;;;;;;;;;;14.50;47.60;;;;;;5086080;28;19924;-67
2022/04/01 13:29:14;;;;;;;;;;;14.10;47.60;;;;;;5085990;28;20289;-72
2022/04/01 13:31:40;;;;;;;;;;;13.70;48.50;;;;;;5069571;28;19919;-74
2022/04/01 13:34:06;;;;;;;;;;;13.40;49.90;;;;;;5049642;28;20276;-70
2022/04/01 13:36:32;;;;;;;4.93;1.90;;;13.20;51.30;;;;;;5090349;28;20196;-68
2022/04/01 13:38:58;;;;;;;2.83;1.50;;;13.10;49.50;;;;;;5086489;28;20521;-68